sensor_id;sensor_type;location;lat;lon;timestamp;temperature;humidity
54946;DHT22;40846;44.788;20.486;2022-08-01T14:06:13;768.80;1408.00
54946;DHT22;40846;44.788;20.486;2022-08-01T14:08:42;768.60;1382.40
54946;DHT22;40846;44.788;20.486;2022-08-01T14:11:08;768.40;1382.40
54946;DHT22;40846;44.788;20.486;2022-08-01T14:13:33;768.30;1408.00
54946;DHT22;40846;44.788;20.486;2022-08-01T14:15:59;768.30;1408.00
54946;DHT22;40846;44.788;20.486;2022-08-01T14:18:25;768.20;1408.00
54946;DHT22;40846;44.788;20.486;2022-08-01T14:20:51;768.20;1408.00
54946;DHT22;40846;44.788;20.486;2022-08-01T14:23:17;768.20;1408.00
54946;DHT22;40846;44.788;20.486;2022-08-01T14:25:43;768.20;1408.00
54946;DHT22;40846;44.788;20.486;2022-08-01T14:28:09;768.20;1382.40
54946;DHT22;40846;44.788;20.486;2022-08-01T14:30:36;768.30;1382.40
54946;DHT22;40846;44.788;20.486;2022-08-01T14:33:02;768.30;1408.00
54946;DHT22;40846;44.788;20.486;2022-08-01T14:35:28;768.60;1408.00
54946;DHT22;40846;44.788;20.486;2022-08-01T19:12:38;716.90;1536.00
54946;DHT22;40846;44.788;20.486;2022-08-01T19:27:15;692.00;1536.00
54946;DHT22;40846;44.788;20.486;2022-08-01T19:39:38;691.90;1587.20
54946;DHT22;40846;44.788;20.486;2022-08-01T19:42:07;691.80;1587.20
54946;DHT22;40846;44.788;20.486;2022-08-01T19:44:35;691.60;1587.20
54946;DHT22;40846;44.788;20.486;2022-08-01T19:47:01;691.40;1587.20
54946;DHT22;40846;44.788;20.486;2022-08-01T19:49:27;691.70;1612.80
54946;DHT22;40846;44.788;20.486;2022-08-01T19:52:00;691.50;1612.80
54946;DHT22;40846;44.788;20.486;2022-08-01T19:57:00;691.60;1638.40
54946;DHT22;40846;44.788;20.486;2022-08-01T19:59:26;691.30;1638.40
54946;DHT22;40846;44.788;20.486;2022-08-01T20:01:55;691.40;1664.00
54946;DHT22;40846;44.788;20.486;2022-08-01T20:09:20;691.40;1638.40
54946;DHT22;40846;44.788;20.486;2022-08-01T22:08:50;640.20;2150.40
54946;DHT22;40846;44.788;20.486;2022-08-01T22:11:27;615.20;2176.00
54946;DHT22;40846;44.788;20.486;2022-08-01T22:14:04;615.20;2227.20
54946;DHT22;40846;44.788;20.486;2022-08-01T22:16:32;615.00;2227.20
54946;DHT22;40846;44.788;20.486;2022-08-01T22:19:00;615.00;2252.80
54946;DHT22;40846;44.788;20.486;2022-08-01T22:21:27;615.00;2252.80
54946;DHT22;40846;44.788;20.486;2022-08-01T22:23:53;615.10;2252.80
54946;DHT22;40846;44.788;20.486;2022-08-01T22:26:20;615.10;2278.40
54946;DHT22;40846;44.788;20.486;2022-08-01T22:28:50;615.10;2278.40
54946;DHT22;40846;44.788;20.486;2022-08-01T22:31:17;615.10;2278.40
54946;DHT22;40846;44.788;20.486;2022-08-01T22:33:45;615.20;2304.00
54946;DHT22;40846;44.788;20.486;2022-08-01T22:38:37;640.30;2252.80
54946;DHT22;40846;44.788;20.486;2022-08-01T22:41:07;615.30;2252.80
54946;DHT22;40846;44.788;20.486;2022-08-01T22:44:03;615.30;2278.40
54946;DHT22;40846;44.788;20.486;2022-08-01T22:49:30;615.20;2329.60
54946;DHT22;40846;44.788;20.486;2022-08-01T22:52:17;615.00;2355.20
54946;DHT22;40846;44.788;20.486;2022-08-01T22:54:48;615.00;2380.80
54946;DHT22;40846;44.788;20.486;2022-08-01T22:57:39;615.00;2406.40
54946;DHT22;40846;44.788;20.486;2022-08-01T23:00:08;614.90;2432.00
54946;DHT22;40846;44.788;20.486;2022-08-01T23:02:39;614.90;2432.00
54946;DHT22;40846;44.788;20.486;2022-08-01T23:05:13;614.90;2406.40
54946;DHT22;40846;44.788;20.486;2022-08-01T23:07:44;614.90;2406.40
54946;DHT22;40846;44.788;20.486;2022-08-01T23:10:10;615.00;2432.00
54946;DHT22;40846;44.788;20.486;2022-08-01T23:12:40;615.00;2432.00
54946;DHT22;40846;44.788;20.486;2022-08-01T23:15:10;615.00;2432.00
54946;DHT22;40846;44.788;20.486;2022-08-01T23:17:36;615.00;2432.00
54946;DHT22;40846;44.788;20.486;2022-08-01T23:20:06;615.00;2432.00
54946;DHT22;40846;44.788;20.486;2022-08-01T23:22:33;614.90;2432.00
54946;DHT22;40846;44.788;20.486;2022-08-01T23:25:02;614.90;2432.00
54946;DHT22;40846;44.788;20.486;2022-08-01T23:27:28;614.90;2432.00
54946;DHT22;40846;44.788;20.486;2022-08-01T23:29:56;614.80;2432.00
54946;DHT22;40846;44.788;20.486;2022-08-01T23:32:22;614.80;2432.00
54946;DHT22;40846;44.788;20.486;2022-08-01T23:34:48;614.70;2432.00
54946;DHT22;40846;44.788;20.486;2022-08-01T23:37:14;614.70;2432.00
54946;DHT22;40846;44.788;20.486;2022-08-01T23:39:43;614.90;2432.00
54946;DHT22;40846;44.788;20.486;2022-08-01T23:42:09;614.80;2432.00
54946;DHT22;40846;44.788;20.486;2022-08-01T23:44:36;615.00;2432.00
54946;DHT22;40846;44.788;20.486;2022-08-01T23:47:03;614.80;2432.00
54946;DHT22;40846;44.788;20.486;2022-08-01T23:49:29;614.80;2432.00
54946;DHT22;40846;44.788;20.486;2022-08-01T23:51:54;614.80;2432.00
54946;DHT22;40846;44.788;20.486;2022-08-01T23:54:20;614.80;2432.00
54946;DHT22;40846;44.788;20.486;2022-08-01T23:56:46;614.70;2432.00
54946;DHT22;40846;44.788;20.486;2022-08-01T23:59:12;614.70;2432.00
